Windsor, Kentucky
Current Conditions -  °F | °C
As of 12:35 PM on Friday 31 Oct 2014 (Local Time) from KSME Reporting Station
Moderate Rain Moderate Rain  
Wind Chill: 45°   Ceiling: 1000
Heat Index: 45°   Visibility: 5mi
Dew Point: 45°   Wind: 3mph
Humidity: 100%   Direction: 300°WNW
Pressure: 29.98"   Gusts: NA
Location:  37.13°N, 84.91°W
Report Text: KSME 311635Z AUTO 30003KT 5SM RA BKN010 OVC020 07/07 A2998 RMK AO2 P0001
Loading
Personal Weather Stations






























Interactive Weather Map
Tropical Storm Tracking
New forecast layout! Learn more

10-Day Weather Forecast

Advertisements
Track Severe Weather on mobile